sensor_id;sensor_type;location;lat;lon;timestamp;pressure;altitude;pressure_sealevel;temperature;humidity
22964;BME280;11648;49.306;6.934;2023-02-03T00:01:59;99751.66;;;11.32;72.52
22964;BME280;11648;49.306;6.934;2023-02-03T00:04:25;99757.81;;;11.29;72.73
22964;BME280;11648;49.306;6.934;2023-02-03T00:06:52;99757.59;;;11.04;73.45
22964;BME280;11648;49.306;6.934;2023-02-03T00:09:19;99739.81;;;10.78;74.02
22964;BME280;11648;49.306;6.934;2023-02-03T00:11:46;99751.25;;;10.77;75.02
22964;BME280;11648;49.306;6.934;2023-02-03T00:14:13;99756.56;;;10.83;74.72
22964;BME280;11648;49.306;6.934;2023-02-03T00:16:40;99762.00;;;11.02;73.88
22964;BME280;11648;49.306;6.934;2023-02-03T00:19:07;99764.66;;;11.08;73.50
22964;BME280;11648;49.306;6.934;2023-02-03T00:21:33;99771.59;;;10.95;73.87
22964;BME280;11648;49.306;6.934;2023-02-03T00:24:00;99767.91;;;10.75;75.10
22964;BME280;11648;49.306;6.934;2023-02-03T00:26:27;99769.88;;;10.99;74.10
22964;BME280;11648;49.306;6.934;2023-02-03T00:28:54;99774.25;;;10.95;74.19
22964;BME280;11648;49.306;6.934;2023-02-03T00:31:23;99770.78;;;11.04;74.10
22964;BME280;11648;49.306;6.934;2023-02-03T00:33:55;99770.03;;;11.17;73.72
22964;BME280;11648;49.306;6.934;2023-02-03T00:36:25;99768.13;;;10.99;74.05
22964;BME280;11648;49.306;6.934;2023-02-03T00:38:52;99764.59;;;10.99;74.34
22964;BME280;11648;49.306;6.934;2023-02-03T00:41:20;99752.28;;;10.96;74.27
22964;BME280;11648;49.306;6.934;2023-02-03T00:43:47;99761.09;;;11.00;74.43
22964;BME280;11648;49.306;6.934;2023-02-03T00:46:14;99747.88;;;10.97;74.78
22964;BME280;11648;49.306;6.934;2023-02-03T00:48:44;99750.53;;;10.97;74.46
22964;BME280;11648;49.306;6.934;2023-02-03T00:51:11;99742.44;;;10.74;75.21
22964;BME280;11648;49.306;6.934;2023-02-03T00:53:38;99740.75;;;10.80;75.19
22964;BME280;11648;49.306;6.934;2023-02-03T00:56:05;99740.75;;;10.82;74.97
22964;BME280;11648;49.306;6.934;2023-02-03T00:58:41;99746.00;;;10.80;74.99
22964;BME280;11648;49.306;6.934;2023-02-03T01:01:09;99772.41;;;10.86;75.08
22964;BME280;11648;49.306;6.934;2023-02-03T01:03:36;99764.69;;;11.11;74.63
22964;BME280;11648;49.306;6.934;2023-02-03T01:06:14;99760.88;;;10.74;75.18
22964;BME280;11648;49.306;6.934;2023-02-03T01:08:46;99759.28;;;10.96;74.75
22964;BME280;11648;49.306;6.934;2023-02-03T01:11:15;99759.38;;;11.05;74.54
22964;BME280;11648;49.306;6.934;2023-02-03T01:13:43;99752.19;;;10.88;74.61
22964;BME280;11648;49.306;6.934;2023-02-03T01:16:13;99745.84;;;10.64;75.16
22964;BME280;11648;49.306;6.934;2023-02-03T01:18:41;99747.66;;;10.69;75.60
22964;BME280;11648;49.306;6.934;2023-02-03T01:21:17;99738.13;;;10.83;75.09
22964;BME280;11648;49.306;6.934;2023-02-03T01:23:44;99742.63;;;10.95;74.85
22964;BME280;11648;49.306;6.934;2023-02-03T01:26:13;99732.66;;;10.61;75.67
22964;BME280;11648;49.306;6.934;2023-02-03T01:28:41;99731.94;;;10.77;75.64
22964;BME280;11648;49.306;6.934;2023-02-03T01:33:35;99725.59;;;10.60;75.31
22964;BME280;11648;49.306;6.934;2023-02-03T01:36:02;99718.56;;;10.56;75.69
22964;BME280;11648;49.306;6.934;2023-02-03T01:38:29;99705.69;;;10.90;74.96
22964;BME280;11648;49.306;6.934;2023-02-03T01:40:55;99695.75;;;10.55;75.80
22964;BME280;11648;49.306;6.934;2023-02-03T01:43:34;99690.56;;;10.65;75.40
22964;BME280;11648;49.306;6.934;2023-02-03T01:46:06;99678.06;;;10.40;76.27
22964;BME280;11648;49.306;6.934;2023-02-03T01:48:42;99657.88;;;10.40;76.47
22964;BME280;11648;49.306;6.934;2023-02-03T01:51:09;99636.91;;;10.51;76.16
22964;BME280;11648;49.306;6.934;2023-02-03T01:53:35;99639.56;;;10.57;75.57
22964;BME280;11648;49.306;6.934;2023-02-03T01:56:04;99658.88;;;10.55;76.02
22964;BME280;11648;49.306;6.934;2023-02-03T01:58:36;99672.13;;;10.65;75.55
22964;BME280;11648;49.306;6.934;2023-02-03T02:01:03;99672.19;;;10.73;74.86
22964;BME280;11648;49.306;6.934;2023-02-03T02:03:38;99674.59;;;10.47;76.31
22964;BME280;11648;49.306;6.934;2023-02-03T02:06:08;99665.16;;;10.72;75.44
22964;BME280;11648;49.306;6.934;2023-02-03T02:08:36;99658.97;;;10.68;75.48
22964;BME280;11648;49.306;6.934;2023-02-03T02:11:04;99652.97;;;10.86;74.73
22964;BME280;11648;49.306;6.934;2023-02-03T02:13:33;99657.41;;;10.93;74.89
22964;BME280;11648;49.306;6.934;2023-02-03T02:16:28;99648.44;;;10.68;74.86
22964;BME280;11648;49.306;6.934;2023-02-03T02:19:08;99653.66;;;10.59;75.07
22964;BME280;11648;49.306;6.934;2023-02-03T02:21:54;99659.78;;;10.60;75.04
22964;BME280;11648;49.306;6.934;2023-02-03T02:32:52;99652.81;;;10.68;75.10
22964;BME280;11648;49.306;6.934;2023-02-03T02:41:09;99660.00;;;10.84;74.89
22964;BME280;11648;49.306;6.934;2023-02-03T02:43:44;99661.69;;;10.76;74.81
22964;BME280;11648;49.306;6.934;2023-02-03T02:46:18;99653.84;;;10.86;74.47
22964;BME280;11648;49.306;6.934;2023-02-03T02:49:08;99649.41;;;10.76;74.51
22964;BME280;11648;49.306;6.934;2023-02-03T02:51:38;99654.63;;;10.72;74.84
22964;BME280;11648;49.306;6.934;2023-02-03T02:54:07;99674.06;;;10.89;74.91
22964;BME280;11648;49.306;6.934;2023-02-03T02:56:38;99684.75;;;11.09;73.62
22964;BME280;11648;49.306;6.934;2023-02-03T02:59:07;99675.72;;;10.78;74.73
22964;BME280;11648;49.306;6.934;2023-02-03T03:01:34;99686.41;;;10.95;73.65
22964;BME280;11648;49.306;6.934;2023-02-03T03:04:04;99692.69;;;11.18;73.13
22964;BME280;11648;49.306;6.934;2023-02-03T03:06:57;99680.28;;;10.99;73.36
22964;BME280;11648;49.306;6.934;2023-02-03T03:09:38;99697.00;;;11.02;73.82
22964;BME280;11648;49.306;6.934;2023-02-03T03:12:10;99722.50;;;11.06;73.47
22964;BME280;11648;49.306;6.934;2023-02-03T03:14:43;99723.34;;;11.04;73.46
22964;BME280;11648;49.306;6.934;2023-02-03T03:17:16;99719.81;;;10.99;73.87
22964;BME280;11648;49.306;6.934;2023-02-03T03:19:49;99713.78;;;11.16;73.17
22964;BME280;11648;49.306;6.934;2023-02-03T03:22:19;99720.94;;;11.37;72.49
22964;BME280;11648;49.306;6.934;2023-02-03T03:24:53;99714.53;;;11.00;72.99
22964;BME280;11648;49.306;6.934;2023-02-03T03:27:25;99712.09;;;11.27;72.83
22964;BME280;11648;49.306;6.934;2023-02-03T03:29:58;99727.88;;;11.23;72.62
22964;BME280;11648;49.306;6.934;2023-02-03T03:32:26;99720.84;;;11.20;72.91
22964;BME280;11648;49.306;6.934;2023-02-03T03:34:53;99713.78;;;11.13;72.85
22964;BME280;11648;49.306;6.934;2023-02-03T03:37:32;99703.94;;;10.88;73.88
22964;BME280;11648;49.306;6.934;2023-02-03T03:40:07;99704.63;;;10.69;74.14
22964;BME280;11648;49.306;6.934;2023-02-03T03:42:58;99708.25;;;10.80;73.90
22964;BME280;11648;49.306;6.934;2023-02-03T03:45:44;99703.84;;;10.79;74.02
22964;BME280;11648;49.306;6.934;2023-02-03T03:50:48;99711.78;;;10.80;74.15
22964;BME280;11648;49.306;6.934;2023-02-03T03:53:17;99705.66;;;10.86;73.88
22964;BME280;11648;49.306;6.934;2023-02-03T03:55:48;99698.59;;;10.80;74.00
22964;BME280;11648;49.306;6.934;2023-02-03T03:58:20;99683.78;;;10.98;73.81
22964;BME280;11648;49.306;6.934;2023-02-03T04:00:49;99678.44;;;10.88;73.74
22964;BME280;11648;49.306;6.934;2023-02-03T04:03:25;99678.47;;;10.93;73.57
22964;BME280;11648;49.306;6.934;2023-02-03T04:05:53;99664.41;;;10.93;73.56
22964;BME280;11648;49.306;6.934;2023-02-03T04:08:20;99675.63;;;10.63;74.50
22964;BME280;11648;49.306;6.934;2023-02-03T04:10:47;99692.31;;;10.65;74.43
22964;BME280;11648;49.306;6.934;2023-02-03T04:13:13;99692.34;;;10.66;74.34
22964;BME280;11648;49.306;6.934;2023-02-03T04:15:41;99682.78;;;10.80;74.61
22964;BME280;11648;49.306;6.934;2023-02-03T04:18:10;99663.94;;;10.32;76.11
22964;BME280;11648;49.306;6.934;2023-02-03T04:20:37;99660.66;;;10.59;75.71
22964;BME280;11648;49.306;6.934;2023-02-03T04:23:04;99662.63;;;10.87;74.42
22964;BME280;11648;49.306;6.934;2023-02-03T04:25:31;99680.16;;;10.85;74.46
22964;BME280;11648;49.306;6.934;2023-02-03T04:27:57;99674.91;;;10.85;74.13
22964;BME280;11648;49.306;6.934;2023-02-03T04:30:24;99688.00;;;10.74;74.86
22964;BME280;11648;49.306;6.934;2023-02-03T04:32:52;99692.53;;;10.94;74.45
22964;BME280;11648;49.306;6.934;2023-02-03T04:35:19;99699.59;;;10.98;74.31
22964;BME280;11648;49.306;6.934;2023-02-03T04:37:46;99700.47;;;11.00;74.36
22964;BME280;11648;49.306;6.934;2023-02-03T04:40:12;99689.03;;;10.95;74.30
22964;BME280;11648;49.306;6.934;2023-02-03T04:42:40;99689.19;;;11.16;73.48
22964;BME280;11648;49.306;6.934;2023-02-03T04:45:08;99689.09;;;11.07;73.99
22964;BME280;11648;49.306;6.934;2023-02-03T04:47:35;99694.34;;;11.04;74.21
22964;BME280;11648;49.306;6.934;2023-02-03T04:50:02;99696.06;;;10.96;74.28
22964;BME280;11648;49.306;6.934;2023-02-03T04:52:29;99690.03;;;11.12;74.38
22964;BME280;11648;49.306;6.934;2023-02-03T04:54:56;99700.47;;;10.95;74.93
22964;BME280;11648;49.306;6.934;2023-02-03T04:57:23;99695.22;;;11.01;74.98
22964;BME280;11648;49.306;6.934;2023-02-03T04:59:49;99692.28;;;10.59;75.82
22964;BME280;11648;49.306;6.934;2023-02-03T05:02:16;99699.66;;;11.07;75.02
22964;BME280;11648;49.306;6.934;2023-02-03T05:04:43;99688.19;;;11.03;74.79
22964;BME280;11648;49.306;6.934;2023-02-03T05:07:10;99681.88;;;10.77;75.64
22964;BME280;11648;49.306;6.934;2023-02-03T05:09:36;99695.34;;;11.16;74.43
22964;BME280;11648;49.306;6.934;2023-02-03T05:12:03;99708.38;;;10.97;74.51
22964;BME280;11648;49.306;6.934;2023-02-03T05:14:30;99690.84;;;10.99;74.45
22964;BME280;11648;49.306;6.934;2023-02-03T05:16:57;99684.63;;;10.94;74.88
22964;BME280;11648;49.306;6.934;2023-02-03T05:19:24;99665.28;;;10.87;74.88
22964;BME280;11648;49.306;6.934;2023-02-03T05:21:50;99675.94;;;11.02;74.32
22964;BME280;11648;49.306;6.934;2023-02-03T05:24:17;99684.69;;;10.98;74.47
22964;BME280;11648;49.306;6.934;2023-02-03T05:26:44;99691.78;;;11.10;74.07
22964;BME280;11648;49.306;6.934;2023-02-03T05:29:10;99677.63;;;10.97;74.52
22964;BME280;11648;49.306;6.934;2023-02-03T05:31:37;99673.34;;;11.13;73.72
22964;BME280;11648;49.306;6.934;2023-02-03T05:34:04;99677.72;;;11.09;73.98
22964;BME280;11648;49.306;6.934;2023-02-03T05:36:30;99680.28;;;11.00;74.26
22964;BME280;11648;49.306;6.934;2023-02-03T05:38:57;99670.72;;;11.10;74.01
22964;BME280;11648;49.306;6.934;2023-02-03T05:41:24;99675.78;;;10.82;74.46
22964;BME280;11648;49.306;6.934;2023-02-03T05:44:10;99683.69;;;10.81;74.61
22964;BME280;11648;49.306;6.934;2023-02-03T05:46:36;99681.91;;;10.81;75.34
22964;BME280;11648;49.306;6.934;2023-02-03T05:49:03;99664.19;;;10.64;75.63
22964;BME280;11648;49.306;6.934;2023-02-03T05:51:30;99672.13;;;10.65;75.85
22964;BME280;11648;49.306;6.934;2023-02-03T05:53:56;99665.19;;;10.76;75.86
22964;BME280;11648;49.306;6.934;2023-02-03T05:56:23;99677.59;;;10.88;75.92
22964;BME280;11648;49.306;6.934;2023-02-03T05:58:50;99686.47;;;11.02;75.36
22964;BME280;11648;49.306;6.934;2023-02-03T06:01:19;99673.25;;;11.01;75.27
22964;BME280;11648;49.306;6.934;2023-02-03T06:03:51;99675.78;;;10.85;75.03
22964;BME280;11648;49.306;6.934;2023-02-03T06:06:18;99672.34;;;10.96;75.47
22964;BME280;11648;49.306;6.934;2023-02-03T06:08:48;99669.69;;;10.91;75.05
22964;BME280;11648;49.306;6.934;2023-02-03T06:11:16;99673.22;;;10.93;75.29
22964;BME280;11648;49.306;6.934;2023-02-03T06:13:43;99681.16;;;11.01;75.17
22964;BME280;11648;49.306;6.934;2023-02-03T06:16:10;99672.31;;;10.89;75.42
22964;BME280;11648;49.306;6.934;2023-02-03T06:18:36;99667.06;;;10.91;75.25
22964;BME280;11648;49.306;6.934;2023-02-03T06:21:03;99678.50;;;10.96;75.06
22964;BME280;11648;49.306;6.934;2023-02-03T06:23:30;99684.69;;;10.98;74.83
22964;BME280;11648;49.306;6.934;2023-02-03T06:25:59;99677.50;;;10.82;75.58
22964;BME280;11648;49.306;6.934;2023-02-03T06:28:26;99669.56;;;10.73;75.43
22964;BME280;11648;49.306;6.934;2023-02-03T06:30:52;99669.69;;;10.91;74.99
22964;BME280;11648;49.306;6.934;2023-02-03T06:33:19;99676.47;;;10.60;75.64
22964;BME280;11648;49.306;6.934;2023-02-03T06:35:46;99680.19;;;10.83;75.36
22964;BME280;11648;49.306;6.934;2023-02-03T06:38:14;99681.03;;;10.82;75.13
22964;BME280;11648;49.306;6.934;2023-02-03T06:40:41;99684.50;;;10.78;75.53
22964;BME280;11648;49.306;6.934;2023-02-03T06:43:07;99674.00;;;10.81;75.30
22964;BME280;11648;49.306;6.934;2023-02-03T06:45:34;99684.50;;;10.78;75.60
22964;BME280;11648;49.306;6.934;2023-02-03T06:48:04;99694.00;;;10.58;76.03
22964;BME280;11648;49.306;6.934;2023-02-03T06:50:33;99679.25;;;10.81;75.13
22964;BME280;11648;49.306;6.934;2023-02-03T06:53:01;99665.13;;;10.66;75.69
22964;BME280;11648;49.306;6.934;2023-02-03T06:55:28;99662.53;;;10.73;75.43
22964;BME280;11648;49.306;6.934;2023-02-03T06:57:54;99665.09;;;10.67;76.27
22964;BME280;11648;49.306;6.934;2023-02-03T07:00:21;99664.19;;;10.64;75.98
22964;BME280;11648;49.306;6.934;2023-02-03T07:02:52;99674.72;;;10.59;76.22
22964;BME280;11648;49.306;6.934;2023-02-03T07:05:20;99672.94;;;10.58;76.23
22964;BME280;11648;49.306;6.934;2023-02-03T07:07:47;99675.72;;;10.73;76.19
22964;BME280;11648;49.306;6.934;2023-02-03T07:10:14;99676.34;;;10.45;76.92
22964;BME280;11648;49.306;6.934;2023-02-03T07:12:41;99673.91;;;10.66;75.99
22964;BME280;11648;49.306;6.934;2023-02-03T07:15:08;99674.81;;;10.70;75.72
22964;BME280;11648;49.306;6.934;2023-02-03T07:17:35;99664.31;;;10.76;75.60
22964;BME280;11648;49.306;6.934;2023-02-03T07:20:03;99679.91;;;10.53;76.59
22964;BME280;11648;49.306;6.934;2023-02-03T07:22:30;99694.06;;;10.64;75.73
22964;BME280;11648;49.306;6.934;2023-02-03T07:24:56;99687.03;;;10.65;75.97
22964;BME280;11648;49.306;6.934;2023-02-03T07:27:23;99691.56;;;10.79;75.28
22964;BME280;11648;49.306;6.934;2023-02-03T07:29:50;99690.72;;;10.83;74.96
22964;BME280;11648;49.306;6.934;2023-02-03T07:32:17;99694.34;;;11.01;74.64
22964;BME280;11648;49.306;6.934;2023-02-03T07:34:44;99685.47;;;10.89;74.79
22964;BME280;11648;49.306;6.934;2023-02-03T07:37:10;99701.22;;;10.77;75.43
22964;BME280;11648;49.306;6.934;2023-02-03T07:39:40;99702.34;;;11.13;74.43
22964;BME280;11648;49.306;6.934;2023-02-03T07:42:07;99699.63;;;10.99;74.70
22964;BME280;11648;49.306;6.934;2023-02-03T07:44:37;99714.56;;;11.02;74.69
22964;BME280;11648;49.306;6.934;2023-02-03T07:47:04;99712.78;;;11.01;74.53
22964;BME280;11648;49.306;6.934;2023-02-03T07:49:31;99713.63;;;10.97;74.92
22964;BME280;11648;49.306;6.934;2023-02-03T07:51:58;99722.59;;;11.20;74.34
22964;BME280;11648;49.306;6.934;2023-02-03T07:54:25;99718.84;;;10.92;75.02
22964;BME280;11648;49.306;6.934;2023-02-03T07:56:52;99726.91;;;11.10;74.35
22964;BME280;11648;49.306;6.934;2023-02-03T07:59:20;99743.59;;;11.06;74.59
22964;BME280;11648;49.306;6.934;2023-02-03T08:01:47;99748.16;;;11.31;73.87
22964;BME280;11648;49.306;6.934;2023-02-03T08:04:14;99749.91;;;11.29;73.37
22964;BME280;11648;49.306;6.934;2023-02-03T08:06:42;99756.06;;;11.30;73.54
22964;BME280;11648;49.306;6.934;2023-02-03T08:09:09;99750.81;;;11.39;73.85
22964;BME280;11648;49.306;6.934;2023-02-03T08:11:36;99748.25;;;11.45;73.38
22964;BME280;11648;49.306;6.934;2023-02-03T08:14:02;99748.09;;;11.22;73.79
22964;BME280;11648;49.306;6.934;2023-02-03T08:16:29;99755.13;;;11.25;73.87
22964;BME280;11648;49.306;6.934;2023-02-03T08:18:56;99756.97;;;11.36;73.80
22964;BME280;11648;49.306;6.934;2023-02-03T08:21:23;99741.19;;;11.43;73.28
22964;BME280;11648;49.306;6.934;2023-02-03T08:23:50;99754.34;;;11.39;73.79
22964;BME280;11648;49.306;6.934;2023-02-03T08:26:17;99757.97;;;11.55;73.32
22964;BME280;11648;49.306;6.934;2023-02-03T08:28:47;99753.53;;;11.48;73.50
22964;BME280;11648;49.306;6.934;2023-02-03T08:31:14;99757.94;;;11.49;73.86
22964;BME280;11648;49.306;6.934;2023-02-03T08:33:41;99752.63;;;11.46;73.89
22964;BME280;11648;49.306;6.934;2023-02-03T08:36:08;99769.38;;;11.51;73.96
22964;BME280;11648;49.306;6.934;2023-02-03T08:38:37;99766.69;;;11.44;74.21
22964;BME280;11648;49.306;6.934;2023-02-03T08:41:09;99764.88;;;11.35;74.89
22964;BME280;11648;49.306;6.934;2023-02-03T08:43:36;99755.25;;;11.38;74.89
22964;BME280;11648;49.306;6.934;2023-02-03T08:46:05;99745.53;;;11.33;74.81
22964;BME280;11648;49.306;6.934;2023-02-03T08:48:33;99742.00;;;11.35;75.08
22964;BME280;11648;49.306;6.934;2023-02-03T08:51:00;99740.22;;;11.24;75.10
22964;BME280;11648;49.306;6.934;2023-02-03T08:53:27;99750.63;;;11.10;75.37
22964;BME280;11648;49.306;6.934;2023-02-03T08:55:53;99754.28;;;11.32;75.30
22964;BME280;11648;49.306;6.934;2023-02-03T08:58:21;99757.91;;;11.46;74.90
22964;BME280;11648;49.306;6.934;2023-02-03T09:00:48;99760.50;;;11.37;74.79
22964;BME280;11648;49.306;6.934;2023-02-03T09:03:15;99764.75;;;11.17;75.72
22964;BME280;11648;49.306;6.934;2023-02-03T09:05:42;99763.84;;;11.13;75.82
22964;BME280;11648;49.306;6.934;2023-02-03T09:08:09;99756.97;;;11.33;75.45
22964;BME280;11648;49.306;6.934;2023-02-03T09:10:35;99758.81;;;11.50;74.90
22964;BME280;11648;49.306;6.934;2023-02-03T09:13:02;99759.78;;;11.62;74.55
22964;BME280;11648;49.306;6.934;2023-02-03T09:15:29;99755.34;;;11.58;74.35
22964;BME280;11648;49.306;6.934;2023-02-03T09:17:55;99757.97;;;11.58;74.08
22964;BME280;11648;49.306;6.934;2023-02-03T09:20:23;99754.59;;;11.74;73.98
22964;BME280;11648;49.306;6.934;2023-02-03T09:22:52;99764.25;;;11.72;73.89
22964;BME280;11648;49.306;6.934;2023-02-03T09:25:20;99762.44;;;11.64;73.90
22964;BME280;11648;49.306;6.934;2023-02-03T09:27:47;99772.88;;;11.53;74.34
22964;BME280;11648;49.306;6.934;2023-02-03T09:30:14;99771.06;;;11.42;74.39
22964;BME280;11648;49.306;6.934;2023-02-03T09:32:40;99762.16;;;11.23;75.41
22964;BME280;11648;49.306;6.934;2023-02-03T09:35:07;99766.66;;;11.37;74.73
22964;BME280;11648;49.306;6.934;2023-02-03T09:37:34;99763.16;;;11.38;74.91
22964;BME280;11648;49.306;6.934;2023-02-03T09:40:00;99758.75;;;11.37;75.33
22964;BME280;11648;49.306;6.934;2023-02-03T09:45:26;99774.47;;;11.24;75.60
22964;BME280;11648;49.306;6.934;2023-02-03T09:47:59;99780.78;;;11.47;75.51
22964;BME280;11648;49.306;6.934;2023-02-03T09:50:32;99785.25;;;11.59;75.18
22964;BME280;11648;49.306;6.934;2023-02-03T09:53:06;99783.31;;;11.33;75.17
22964;BME280;11648;49.306;6.934;2023-02-03T09:55:44;99781.63;;;11.42;75.61
22964;BME280;11648;49.306;6.934;2023-02-03T09:58:13;99767.50;;;11.33;75.79
22964;BME280;11648;49.306;6.934;2023-02-03T10:00:47;99760.50;;;11.37;76.37
22964;BME280;11648;49.306;6.934;2023-02-03T10:14:31;99773.44;;;11.05;76.40
22964;BME280;11648;49.306;6.934;2023-02-03T10:17:36;99777.19;;;11.37;75.67
22964;BME280;11648;49.306;6.934;2023-02-03T10:22:41;99762.16;;;11.23;75.38
22964;BME280;11648;49.306;6.934;2023-02-03T10:25:26;99765.81;;;11.42;75.13
22964;BME280;11648;49.306;6.934;2023-02-03T10:28:00;99758.78;;;11.44;74.59
22964;BME280;11648;49.306;6.934;2023-02-03T10:30:32;99762.31;;;11.46;74.57
22964;BME280;11648;49.306;6.934;2023-02-03T10:33:11;99758.81;;;11.50;74.53
22964;BME280;11648;49.306;6.934;2023-02-03T10:38:17;99788.75;;;11.56;74.28
22964;BME280;11648;49.306;6.934;2023-02-03T10:40:47;99778.16;;;11.53;74.76
22964;BME280;11648;49.306;6.934;2023-02-03T10:43:14;99764.84;;;11.32;75.40
22964;BME280;11648;49.306;6.934;2023-02-03T10:45:59;99756.09;;;11.36;75.78
22964;BME280;11648;49.306;6.934;2023-02-03T10:48:26;99752.53;;;11.29;75.41
22964;BME280;11648;49.306;6.934;2023-02-03T10:50:54;99749.06;;;11.35;75.61
22964;BME280;11648;49.306;6.934;2023-02-03T10:55:51;99730.38;;;11.02;76.58
22964;BME280;11648;49.306;6.934;2023-02-03T10:58:27;99719.16;;;11.30;76.47
22964;BME280;11648;49.306;6.934;2023-02-03T11:01:03;99720.06;;;11.36;76.09
22964;BME280;11648;49.306;6.934;2023-02-03T11:03:30;99714.78;;;11.33;76.00
22964;BME280;11648;49.306;6.934;2023-02-03T11:08:31;99732.28;;;11.24;76.02
22964;BME280;11648;49.306;6.934;2023-02-03T11:11:03;99715.66;;;11.34;75.66
22964;BME280;11648;49.306;6.934;2023-02-03T11:13:30;99718.28;;;11.31;75.45
22964;BME280;11648;49.306;6.934;2023-02-03T11:26:29;99715.53;;;11.17;75.66
22964;BME280;11648;49.306;6.934;2023-02-03T11:28:59;99720.88;;;11.23;75.79
22964;BME280;11648;49.306;6.934;2023-02-03T11:31:46;99725.03;;;10.94;76.57
22964;BME280;11648;49.306;6.934;2023-02-03T11:34:16;99712.94;;;11.22;76.04
22964;BME280;11648;49.306;6.934;2023-02-03T11:36:44;99712.00;;;11.14;76.39
22964;BME280;11648;49.306;6.934;2023-02-03T11:39:27;99720.88;;;11.28;76.54
22964;BME280;11648;49.306;6.934;2023-02-03T11:41:55;99720.09;;;11.43;75.83
22964;BME280;11648;49.306;6.934;2023-02-03T11:44:23;99722.59;;;11.20;76.58
22964;BME280;11648;49.306;6.934;2023-02-03T11:47:17;99715.53;;;11.16;76.67
22964;BME280;11648;49.306;6.934;2023-02-03T11:55:03;99721.88;;;11.42;75.61
22964;BME280;11648;49.306;6.934;2023-02-03T12:00:41;99711.38;;;11.53;75.58
22964;BME280;11648;49.306;6.934;2023-02-03T12:06:23;99694.56;;;11.35;76.11
22964;BME280;11648;49.306;6.934;2023-02-03T12:12:15;99693.91;;;11.76;74.75
22964;BME280;11648;49.306;6.934;2023-02-03T12:17:29;99694.59;;;11.40;75.71
22964;BME280;11648;49.306;6.934;2023-02-03T12:23:16;99704.38;;;11.61;75.03
22964;BME280;11648;49.306;6.934;2023-02-03T12:25:58;99724.56;;;11.56;74.40
22964;BME280;11648;49.306;6.934;2023-02-03T12:28:32;99728.25;;;11.86;73.57
22964;BME280;11648;49.306;6.934;2023-02-03T12:31:17;99737.00;;;11.75;73.09
22964;BME280;11648;49.306;6.934;2023-02-03T12:33:50;99737.00;;;11.73;72.82
22964;BME280;11648;49.306;6.934;2023-02-03T12:36:30;99730.00;;;11.80;73.06
22964;BME280;11648;49.306;6.934;2023-02-03T12:39:05;99728.31;;;12.02;72.67
22964;BME280;11648;49.306;6.934;2023-02-03T12:41:49;99721.97;;;11.63;73.87
22964;BME280;11648;49.306;6.934;2023-02-03T12:44:25;99730.78;;;11.68;73.15
22964;BME280;11648;49.306;6.934;2023-02-03T12:47:02;99722.00;;;11.69;73.39
22964;BME280;11648;49.306;6.934;2023-02-03T12:49:40;99728.25;;;11.89;72.75
22964;BME280;11648;49.306;6.934;2023-02-03T12:57:22;99710.59;;;11.72;73.95
22964;BME280;11648;49.306;6.934;2023-02-03T13:00:02;99701.66;;;11.50;74.85
22964;BME280;11648;49.306;6.934;2023-02-03T13:03:25;99707.84;;;11.57;75.07
22964;BME280;11648;49.306;6.934;2023-02-03T13:05:36;99703.44;;;11.48;75.53
22964;BME280;11648;49.306;6.934;2023-02-03T13:08:13;99699.97;;;11.60;75.02
22964;BME280;11648;49.306;6.934;2023-02-03T13:11:11;99694.81;;;11.85;73.31
22964;BME280;11648;49.306;6.934;2023-02-03T13:13:46;99693.03;;;11.78;73.70
22964;BME280;11648;49.306;6.934;2023-02-03T13:16:15;99678.97;;;11.76;73.79
22964;BME280;11648;49.306;6.934;2023-02-03T13:18:50;99671.06;;;11.82;73.74
22964;BME280;11648;49.306;6.934;2023-02-03T13:21:19;99670.19;;;11.77;73.79
22964;BME280;11648;49.306;6.934;2023-02-03T13:23:46;99665.69;;;11.58;74.05
22964;BME280;11648;49.306;6.934;2023-02-03T13:35:54;99626.28;;;12.05;73.68
22964;BME280;11648;49.306;6.934;2023-02-03T13:41:09;99629.75;;;11.81;74.77
22964;BME280;11648;49.306;6.934;2023-02-03T13:43:46;99628.91;;;11.88;74.14
22964;BME280;11648;49.306;6.934;2023-02-03T13:46:34;99627.09;;;11.77;74.94
22964;BME280;11648;49.306;6.934;2023-02-03T13:49:03;99633.25;;;11.76;75.18
22964;BME280;11648;49.306;6.934;2023-02-03T13:51:42;99636.78;;;11.84;74.75
22964;BME280;11648;49.306;6.934;2023-02-03T13:54:25;99635.94;;;11.99;74.18
22964;BME280;11648;49.306;6.934;2023-02-03T13:56:58;99655.25;;;11.84;74.19
22964;BME280;11648;49.306;6.934;2023-02-03T13:59:51;99646.47;;;11.91;74.45
22964;BME280;11648;49.306;6.934;2023-02-03T14:07:32;99644.63;;;11.69;74.79
22964;BME280;11648;49.306;6.934;2023-02-03T14:25:21;99649.97;;;11.85;74.07
22964;BME280;11648;49.306;6.934;2023-02-03T14:27:58;99642.03;;;11.79;74.28
22964;BME280;11648;49.306;6.934;2023-02-03T14:30:26;99638.50;;;11.76;74.38
22964;BME280;11648;49.306;6.934;2023-02-03T14:32:55;99633.25;;;11.77;74.46
22964;BME280;11648;49.306;6.934;2023-02-03T14:35:34;99637.69;;;11.87;74.23
22964;BME280;11648;49.306;6.934;2023-02-03T14:38:05;99649.91;;;11.67;75.07
22964;BME280;11648;49.306;6.934;2023-02-03T14:40:47;99649.16;;;12.05;74.06
22964;BME280;11648;49.306;6.934;2023-02-03T14:54:40;99656.91;;;11.59;75.01
22964;BME280;11648;49.306;6.934;2023-02-03T15:00:31;99657.88;;;11.73;74.90
22964;BME280;11648;49.306;6.934;2023-02-03T15:05:46;99661.28;;;11.59;75.18
22964;BME280;11648;49.306;6.934;2023-02-03T15:08:38;99660.53;;;11.81;75.37
22964;BME280;11648;49.306;6.934;2023-02-03T15:11:26;99668.44;;;11.85;74.62
22964;BME280;11648;49.306;6.934;2023-02-03T15:13:55;99669.34;;;11.97;74.53
22964;BME280;11648;49.306;6.934;2023-02-03T15:16:23;99671.97;;;11.87;74.94
22964;BME280;11648;49.306;6.934;2023-02-03T15:18:56;99671.97;;;11.87;74.53
22964;BME280;11648;49.306;6.934;2023-02-03T15:21:24;99674.66;;;11.98;74.08
22964;BME280;11648;49.306;6.934;2023-02-03T15:23:51;99674.66;;;12.03;74.08
22964;BME280;11648;49.306;6.934;2023-02-03T15:26:21;99681.66;;;11.87;74.68
22964;BME280;11648;49.306;6.934;2023-02-03T15:29:00;99671.94;;;11.78;75.33